createdAt,value
2023-03-10T00:01:35.916Z,100.00
2023-03-10T00:04:08.358Z,100.00
2023-03-10T00:06:41.743Z,100.00
2023-03-10T00:09:14.339Z,100.00
2023-03-10T00:11:47.225Z,100.00
2023-03-10T00:14:20.418Z,100.00
2023-03-10T00:16:53.693Z,100.00
2023-03-10T00:19:26.842Z,100.00
2023-03-10T00:21:59.312Z,100.00
2023-03-10T00:24:32.124Z,100.00
2023-03-10T00:27:04.446Z,100.00
2023-03-10T00:29:37.494Z,100.00
2023-03-10T00:32:10.280Z,100.00
2023-03-10T00:34:42.679Z,100.00
2023-03-10T00:37:15.405Z,100.00
2023-03-10T00:39:52.944Z,100.00
2023-03-10T00:42:25.994Z,100.00
2023-03-10T00:44:58.661Z,100.00
2023-03-10T00:47:31.360Z,100.00
2023-03-10T00:50:04.976Z,100.00
2023-03-10T00:52:37.781Z,100.00
2023-03-10T00:55:11.482Z,100.00
2023-03-10T00:57:43.878Z,100.00
2023-03-10T01:00:18.342Z,100.00
2023-03-10T01:02:51.713Z,100.00
2023-03-10T01:05:25.792Z,100.00
2023-03-10T01:07:58.209Z,100.00
2023-03-10T01:10:31.006Z,100.00
2023-03-10T01:13:04.655Z,100.00
2023-03-10T01:15:37.379Z,100.00
2023-03-10T01:18:09.731Z,100.00
2023-03-10T01:20:43.999Z,100.00
2023-03-10T01:23:41.251Z,100.00
2023-03-10T01:26:15.181Z,100.00
2023-03-10T01:28:50.598Z,100.00
2023-03-10T01:31:25.071Z,100.00
2023-03-10T01:33:58.995Z,100.00
2023-03-10T01:36:32.291Z,100.00
2023-03-10T01:39:05.626Z,100.00
2023-03-10T01:41:41.981Z,100.00
2023-03-10T01:44:18.258Z,100.00
2023-03-10T01:46:53.176Z,100.00
2023-03-10T01:49:40.852Z,100.00
2023-03-10T01:52:18.303Z,100.00
2023-03-10T01:55:13.130Z,100.00
2023-03-10T01:57:49.138Z,100.00
2023-03-10T02:00:26.017Z,100.00
2023-03-10T02:03:30.985Z,100.00
2023-03-10T02:06:12.887Z,100.00
2023-03-10T02:08:52.465Z,100.00
2023-03-10T02:11:25.653Z,100.00
2023-03-10T02:13:58.164Z,100.00
2023-03-10T02:16:30.770Z,100.00
2023-03-10T02:19:04.079Z,100.00
2023-03-10T02:21:48.185Z,100.00
2023-03-10T02:24:53.257Z,100.00
2023-03-10T02:27:30.671Z,100.00
2023-03-10T02:30:09.703Z,100.00
2023-03-10T02:32:46.823Z,100.00
2023-03-10T02:35:19.476Z,100.00
2023-03-10T02:38:02.864Z,100.00
2023-03-10T02:40:40.553Z,100.00
2023-03-10T02:43:34.523Z,100.00
2023-03-10T02:46:20.820Z,100.00
2023-03-10T02:48:53.830Z,100.00
2023-03-10T02:51:53.244Z,100.00
2023-03-10T02:54:26.253Z,100.00
2023-03-10T02:56:58.739Z,100.00
2023-03-10T02:59:31.552Z,100.00
2023-03-10T03:02:04.859Z,100.00
2023-03-10T03:04:37.428Z,100.00
2023-03-10T03:07:10.363Z,100.00
2023-03-10T03:09:43.974Z,100.00
2023-03-10T03:12:16.674Z,100.00
2023-03-10T03:14:49.992Z,100.00
2023-03-10T03:17:23.027Z,100.00
2023-03-10T03:19:55.437Z,100.00
2023-03-10T03:22:29.507Z,100.00
2023-03-10T03:25:02.223Z,100.00
2023-03-10T03:27:35.325Z,100.00
2023-03-10T03:30:14.330Z,100.00
2023-03-10T03:32:47.366Z,100.00
2023-03-10T03:35:32.256Z,100.00
2023-03-10T03:38:06.246Z,100.00
2023-03-10T03:40:39.980Z,100.00
2023-03-10T03:43:13.830Z,100.00
2023-03-10T03:45:47.401Z,100.00
2023-03-10T03:48:22.333Z,100.00
2023-03-10T03:50:55.945Z,100.00
2023-03-10T03:53:30.139Z,100.00
2023-03-10T03:56:02.751Z,100.00
2023-03-10T03:58:38.273Z,100.00
2023-03-10T04:01:11.131Z,100.00
2023-03-10T04:03:45.489Z,100.00
2023-03-10T04:06:23.466Z,100.00
2023-03-10T04:08:56.770Z,100.00
2023-03-10T04:11:40.389Z,100.00
2023-03-10T04:14:16.810Z,100.00
2023-03-10T04:16:49.850Z,100.00
2023-03-10T04:19:23.132Z,100.00
2023-03-10T04:21:57.886Z,100.00
2023-03-10T04:24:30.604Z,100.00
2023-03-10T04:27:04.274Z,100.00
2023-03-10T04:29:40.926Z,100.00
2023-03-10T04:32:14.239Z,100.00
2023-03-10T04:34:48.346Z,100.00
2023-03-10T04:37:22.075Z,100.00
2023-03-10T04:39:54.950Z,100.00
2023-03-10T04:42:28.234Z,100.00
2023-03-10T04:45:02.255Z,100.00
2023-03-10T04:47:35.347Z,100.00
2023-03-10T04:50:09.442Z,100.00
2023-03-10T04:52:43.237Z,100.00
2023-03-10T04:55:16.051Z,100.00
2023-03-10T04:57:48.696Z,100.00
2023-03-10T05:00:22.033Z,100.00
2023-03-10T05:02:55.400Z,100.00
2023-03-10T05:05:28.111Z,100.00
2023-03-10T05:08:00.733Z,100.00
2023-03-10T05:10:34.081Z,100.00
2023-03-10T05:13:06.399Z,100.00
2023-03-10T05:15:40.816Z,100.00
2023-03-10T05:18:15.472Z,100.00
2023-03-10T05:20:48.122Z,100.00
2023-03-10T05:23:20.692Z,100.00
2023-03-10T05:25:53.306Z,100.00
2023-03-10T05:28:26.841Z,100.00
2023-03-10T05:31:00.941Z,100.00
2023-03-10T05:33:34.554Z,100.00
2023-03-10T05:36:08.939Z,100.00
2023-03-10T05:38:42.314Z,100.00
2023-03-10T05:41:16.489Z,100.00
2023-03-10T05:43:50.968Z,100.00
2023-03-10T05:46:24.998Z,100.00
2023-03-10T05:49:00.848Z,100.00
2023-03-10T05:51:33.690Z,100.00
2023-03-10T05:54:07.490Z,100.00
2023-03-10T05:56:40.162Z,100.00
2023-03-10T05:59:14.053Z,100.00
2023-03-10T06:01:46.566Z,100.00
2023-03-10T06:04:19.571Z,100.00
2023-03-10T06:06:53.245Z,100.00
2023-03-10T06:09:25.828Z,100.00
2023-03-10T06:11:59.682Z,100.00
2023-03-10T06:14:33.341Z,100.00
2023-03-10T06:17:06.085Z,97.01
2023-03-10T06:19:39.075Z,94.70
2023-03-10T06:22:11.934Z,94.17
2023-03-10T06:24:45.595Z,89.99
2023-03-10T06:27:18.472Z,85.08
2023-03-10T06:29:50.887Z,85.08
2023-03-10T06:32:23.545Z,83.37
2023-03-10T06:34:55.883Z,81.86
2023-03-10T06:37:28.942Z,82.50
2023-03-10T06:40:01.482Z,82.27
2023-03-10T06:42:45.408Z,82.17
2023-03-10T06:45:18.750Z,81.71
2023-03-10T06:47:51.266Z,82.97
2023-03-10T06:50:24.898Z,82.57
2023-03-10T06:52:58.139Z,83.58
2023-03-10T06:55:30.721Z,83.81
2023-03-10T06:58:03.399Z,85.52
2023-03-10T07:00:36.909Z,86.17
2023-03-10T07:03:13.026Z,86.24
2023-03-10T07:05:45.414Z,86.83
2023-03-10T07:08:17.801Z,87.31
2023-03-10T07:10:51.943Z,87.11
2023-03-10T07:13:24.830Z,86.88
2023-03-10T07:15:58.168Z,86.41
2023-03-10T07:18:31.113Z,86.82
2023-03-10T07:21:03.530Z,86.57
2023-03-10T07:23:37.058Z,86.63
2023-03-10T07:26:09.490Z,86.57
2023-03-10T07:28:43.449Z,86.51
2023-03-10T07:31:16.115Z,86.91
2023-03-10T07:33:49.908Z,85.98
2023-03-10T07:36:24.558Z,86.54
2023-03-10T07:39:10.177Z,86.37
2023-03-10T07:41:42.773Z,86.15
2023-03-10T07:44:15.546Z,86.21
2023-03-10T07:46:48.375Z,85.53
2023-03-10T07:49:22.375Z,85.92
2023-03-10T07:51:55.842Z,85.76
2023-03-10T07:54:28.265Z,86.38
2023-03-10T07:57:00.866Z,85.89
2023-03-10T07:59:33.362Z,85.02
2023-03-10T08:02:06.512Z,84.59
2023-03-10T08:04:39.220Z,85.30
2023-03-10T08:07:12.141Z,85.38
2023-03-10T08:09:46.340Z,85.19
2023-03-10T08:12:19.760Z,85.06
2023-03-10T08:14:52.904Z,85.21
2023-03-10T08:17:27.775Z,85.14
2023-03-10T08:20:00.987Z,85.09
2023-03-10T08:22:33.653Z,85.49
2023-03-10T08:25:06.928Z,85.97
2023-03-10T08:27:41.808Z,85.92
2023-03-10T08:30:15.417Z,86.43
2023-03-10T08:32:48.517Z,86.20
2023-03-10T08:35:21.216Z,86.11
2023-03-10T08:37:55.454Z,85.40
2023-03-10T08:40:28.403Z,84.69
2023-03-10T08:43:01.845Z,84.61
2023-03-10T08:45:34.386Z,84.81
2023-03-10T08:48:07.013Z,84.67
2023-03-10T08:50:40.246Z,84.00
2023-03-10T08:53:12.912Z,83.27
2023-03-10T08:55:45.354Z,82.21
2023-03-10T08:58:18.527Z,81.33
2023-03-10T09:00:50.816Z,80.74
2023-03-10T09:03:23.819Z,80.68
2023-03-10T09:05:56.228Z,80.65
2023-03-10T09:08:31.170Z,81.09
2023-03-10T09:11:04.273Z,80.99
2023-03-10T09:13:37.029Z,80.10
2023-03-10T09:16:11.417Z,79.93
2023-03-10T09:18:44.483Z,79.33
2023-03-10T09:21:18.410Z,78.75
2023-03-10T09:23:53.060Z,78.01
2023-03-10T09:26:25.737Z,76.94
2023-03-10T09:28:58.718Z,76.45
2023-03-10T09:31:34.432Z,76.42
2023-03-10T09:34:08.469Z,76.01
2023-03-10T09:36:41.498Z,77.02
2023-03-10T09:39:13.902Z,76.69
2023-03-10T09:42:14.961Z,76.10
2023-03-10T09:45:17.123Z,76.28
2023-03-10T09:48:25.952Z,75.78
2023-03-10T09:50:57.200Z,75.94
2023-03-10T09:54:00.300Z,75.91
2023-03-10T09:56:34.988Z,77.16
2023-03-10T09:59:12.078Z,78.54
2023-03-10T10:02:06.531Z,78.53
2023-03-10T10:04:40.778Z,79.16
2023-03-10T10:07:21.072Z,78.86
2023-03-10T10:10:19.343Z,77.58
2023-03-10T10:12:52.666Z,76.76
2023-03-10T10:15:27.625Z,76.61
2023-03-10T10:18:34.076Z,77.09
2023-03-10T10:21:11.603Z,78.98
2023-03-10T10:23:51.805Z,82.26
2023-03-10T10:26:27.947Z,80.56
2023-03-10T10:29:14.307Z,80.22
2023-03-10T10:32:06.870Z,79.82
2023-03-10T10:34:42.932Z,79.23
2023-03-10T10:37:38.803Z,78.47
2023-03-10T10:40:25.309Z,77.95
2023-03-10T10:43:00.473Z,77.98
2023-03-10T10:45:40.403Z,78.48
2023-03-10T10:48:40.543Z,78.20
2023-03-10T10:51:29.319Z,78.91
2023-03-10T10:54:06.470Z,78.46
2023-03-10T10:56:38.821Z,78.96
2023-03-10T10:59:23.761Z,79.25
2023-03-10T11:02:02.217Z,79.76
2023-03-10T11:04:46.609Z,80.19
2023-03-10T11:07:23.480Z,79.36
2023-03-10T11:09:58.618Z,79.24
2023-03-10T11:12:35.459Z,79.15
2023-03-10T11:15:28.334Z,78.29
2023-03-10T11:18:06.230Z,78.46
2023-03-10T11:20:56.480Z,78.60
2023-03-10T11:23:51.806Z,79.23
2023-03-10T11:26:29.281Z,78.53
2023-03-10T11:29:25.652Z,77.92
2023-03-10T11:32:19.494Z,78.36
2023-03-10T11:34:58.374Z,78.22
2023-03-10T11:37:47.673Z,78.29
2023-03-10T11:40:29.050Z,78.23
2023-03-10T11:43:35.787Z,78.08
2023-03-10T11:46:26.064Z,77.73
2023-03-10T11:49:07.904Z,77.40
2023-03-10T11:51:51.792Z,78.17
2023-03-10T11:54:49.105Z,78.72
2023-03-10T11:57:23.265Z,78.96
2023-03-10T12:00:00.426Z,79.78
2023-03-10T12:03:04.475Z,80.10
2023-03-10T12:05:53.321Z,80.53
2023-03-10T12:08:26.850Z,80.53
2023-03-10T12:11:03.329Z,80.92
2023-03-10T12:13:44.030Z,80.41
2023-03-10T12:16:24.691Z,80.83
2023-03-10T12:18:57.421Z,80.24
2023-03-10T12:21:31.889Z,81.57
2023-03-10T12:24:05.478Z,81.47
2023-03-10T12:26:45.758Z,81.26
2023-03-10T12:29:29.671Z,81.38
2023-03-10T12:32:02.322Z,80.56
2023-03-10T12:34:35.422Z,81.35
2023-03-10T12:37:12.300Z,81.06
2023-03-10T12:39:45.169Z,80.45
2023-03-10T12:42:36.000Z,79.76
2023-03-10T12:45:29.341Z,79.60
2023-03-10T12:48:22.674Z,78.86
2023-03-10T12:51:01.357Z,78.94
2023-03-10T12:53:38.991Z,79.30
2023-03-10T12:56:19.219Z,79.47
2023-03-10T12:59:02.111Z,79.02
2023-03-10T13:01:55.096Z,79.27
2023-03-10T13:04:22.298Z,79.80
2023-03-10T13:06:59.695Z,79.54
2023-03-10T13:09:39.254Z,79.12
2023-03-10T13:12:31.237Z,79.32
2023-03-10T13:15:06.437Z,78.20
2023-03-10T13:17:38.847Z,78.01
2023-03-10T13:20:19.469Z,78.79
2023-03-10T13:23:18.399Z,79.03
2023-03-10T13:25:58.018Z,80.35
2023-03-10T13:28:34.687Z,79.67
2023-03-10T13:31:35.859Z,79.33
2023-03-10T13:34:21.419Z,80.02
2023-03-10T13:36:54.799Z,80.06
2023-03-10T13:39:28.263Z,81.62
2023-03-10T13:42:02.263Z,80.93
2023-03-10T13:44:42.471Z,81.48
2023-03-10T13:47:24.982Z,81.97
2023-03-10T13:50:00.957Z,82.04
2023-03-10T13:52:34.456Z,82.31
2023-03-10T13:55:16.185Z,82.88
2023-03-10T13:57:49.797Z,82.64
2023-03-10T14:00:25.210Z,82.82
2023-03-10T14:02:57.757Z,82.95
2023-03-10T14:06:00.412Z,83.75
2023-03-10T14:08:34.050Z,84.19
2023-03-10T14:11:41.878Z,84.02
2023-03-10T14:14:15.493Z,83.75
2023-03-10T14:16:57.051Z,84.40
2023-03-10T14:19:48.578Z,85.51
2023-03-10T14:22:36.310Z,84.72
2023-03-10T14:25:13.014Z,84.68
2023-03-10T14:27:49.684Z,85.84
2023-03-10T14:30:29.367Z,86.44
2023-03-10T14:33:03.029Z,89.40
2023-03-10T14:35:35.440Z,88.80
2023-03-10T14:38:08.434Z,88.82
2023-03-10T14:40:54.587Z,87.23
2023-03-10T14:43:28.345Z,87.20
2023-03-10T14:46:06.280Z,86.87
2023-03-10T14:48:40.934Z,86.68
2023-03-10T14:51:29.029Z,86.01
2023-03-10T14:53:52.608Z,84.35
2023-03-10T14:56:25.695Z,83.68
2023-03-10T14:58:59.940Z,83.58
2023-03-10T15:01:32.226Z,82.88
2023-03-10T15:04:05.305Z,83.67
2023-03-10T15:06:37.778Z,83.83
2023-03-10T15:09:10.956Z,83.85
2023-03-10T15:11:44.347Z,85.25
2023-03-10T15:14:20.543Z,85.09
2023-03-10T15:16:53.011Z,85.67
2023-03-10T15:19:28.227Z,86.10
2023-03-10T15:22:00.738Z,86.89
2023-03-10T15:24:33.725Z,86.87
2023-03-10T15:27:06.183Z,87.51
2023-03-10T15:29:39.371Z,87.26
2023-03-10T15:32:12.830Z,87.61
2023-03-10T15:34:45.424Z,87.93
2023-03-10T15:37:17.928Z,88.80
2023-03-10T15:39:50.580Z,88.96
2023-03-10T15:42:25.353Z,89.81
2023-03-10T15:44:58.072Z,89.38
2023-03-10T15:47:31.279Z,89.94
2023-03-10T15:50:03.824Z,89.95
2023-03-10T15:52:36.445Z,90.69
2023-03-10T15:55:09.670Z,91.01
2023-03-10T15:57:43.193Z,90.90
2023-03-10T16:00:20.002Z,90.92
2023-03-10T16:02:53.069Z,91.39
2023-03-10T16:05:26.059Z,91.44
2023-03-10T16:08:00.149Z,92.42
2023-03-10T16:10:34.607Z,92.79
2023-03-10T16:13:07.240Z,93.04
2023-03-10T16:15:40.316Z,93.44
2023-03-10T16:18:12.959Z,94.16
2023-03-10T16:20:45.760Z,93.96
2023-03-10T16:23:19.178Z,94.29
2023-03-10T16:26:13.046Z,95.38
2023-03-10T16:28:55.733Z,94.93
2023-03-10T16:31:28.798Z,95.02
2023-03-10T16:34:03.997Z,95.21
2023-03-10T16:36:37.954Z,96.04
2023-03-10T16:39:12.191Z,96.43
2023-03-10T16:41:45.572Z,96.32
2023-03-10T16:44:18.206Z,96.64
2023-03-10T16:46:50.703Z,96.38
2023-03-10T16:49:24.445Z,96.77
2023-03-10T16:51:56.710Z,96.59
2023-03-10T16:54:29.114Z,97.02
2023-03-10T16:57:03.808Z,97.66
2023-03-10T16:59:37.054Z,97.38
2023-03-10T17:02:15.870Z,97.44
2023-03-10T17:04:49.385Z,97.80
2023-03-10T17:07:21.727Z,97.36
2023-03-10T17:09:55.201Z,97.53
2023-03-10T17:12:27.758Z,97.61
2023-03-10T17:15:00.791Z,98.24
2023-03-10T17:17:34.171Z,98.18
2023-03-10T17:20:08.788Z,98.10
2023-03-10T17:22:41.359Z,97.88
2023-03-10T17:25:15.104Z,97.77
2023-03-10T17:27:48.276Z,97.98
2023-03-10T17:30:20.821Z,98.08
2023-03-10T17:32:53.981Z,97.92
2023-03-10T17:35:26.485Z,97.81
2023-03-10T17:37:59.852Z,97.96
2023-03-10T17:40:33.977Z,97.95
2023-03-10T17:43:17.648Z,98.18
2023-03-10T17:45:41.523Z,97.89
2023-03-10T17:48:14.663Z,97.91
2023-03-10T17:50:51.542Z,98.04
2023-03-10T17:53:30.134Z,98.00
2023-03-10T17:56:09.380Z,97.71
2023-03-10T17:58:43.307Z,97.83
2023-03-10T18:01:22.324Z,98.04
2023-03-10T18:03:56.302Z,98.50
2023-03-10T18:06:31.696Z,98.36
2023-03-10T18:09:07.756Z,98.38
2023-03-10T18:11:40.280Z,99.04
2023-03-10T18:14:12.955Z,98.42
2023-03-10T18:16:46.039Z,98.47
2023-03-10T18:19:20.835Z,98.47
2023-03-10T18:21:53.761Z,98.37
2023-03-10T18:24:26.770Z,98.23
2023-03-10T18:27:01.174Z,98.78
2023-03-10T18:29:33.804Z,98.38
2023-03-10T18:32:08.185Z,98.93
2023-03-10T18:34:41.219Z,99.00
2023-03-10T18:37:19.859Z,98.73
2023-03-10T18:39:53.092Z,99.08
2023-03-10T18:42:28.301Z,98.58
2023-03-10T18:45:01.764Z,98.38
2023-03-10T18:47:36.646Z,98.30
2023-03-10T18:50:11.731Z,98.60
2023-03-10T18:52:44.543Z,98.67
2023-03-10T18:55:22.709Z,98.66
2023-03-10T18:57:58.205Z,98.60
2023-03-10T19:00:31.614Z,98.74
2023-03-10T19:03:04.747Z,99.20
2023-03-10T19:05:39.164Z,99.21
2023-03-10T19:08:12.346Z,99.44
2023-03-10T19:10:45.517Z,99.87
2023-03-10T19:13:18.269Z,99.91
2023-03-10T19:15:50.804Z,100.00
2023-03-10T19:18:24.847Z,99.92
2023-03-10T19:21:02.140Z,100.00
2023-03-10T19:23:35.157Z,100.00
2023-03-10T19:26:09.224Z,100.00
2023-03-10T19:28:42.141Z,100.00
2023-03-10T19:31:15.899Z,100.00
2023-03-10T19:33:48.931Z,100.00
2023-03-10T19:36:21.544Z,100.00
2023-03-10T19:38:54.837Z,100.00
2023-03-10T19:41:28.261Z,100.00
2023-03-10T19:44:04.192Z,100.00
2023-03-10T19:46:37.836Z,100.00
2023-03-10T19:49:10.427Z,100.00
2023-03-10T19:51:43.245Z,100.00
2023-03-10T19:54:16.704Z,100.00
2023-03-10T19:56:50.881Z,100.00
2023-03-10T19:59:23.549Z,100.00
2023-03-10T20:01:56.179Z,100.00
2023-03-10T20:04:28.988Z,100.00
2023-03-10T20:07:01.744Z,100.00
2023-03-10T20:09:35.915Z,100.00
2023-03-10T20:12:08.830Z,100.00
2023-03-10T20:14:41.453Z,100.00
2023-03-10T20:17:14.230Z,100.00
2023-03-10T20:19:46.788Z,100.00
2023-03-10T20:22:19.753Z,100.00
2023-03-10T20:24:52.515Z,100.00
2023-03-10T20:27:25.547Z,100.00
2023-03-10T20:29:59.392Z,100.00
2023-03-10T20:32:32.139Z,100.00
2023-03-10T20:35:05.193Z,100.00
2023-03-10T20:37:38.790Z,100.00
2023-03-10T20:40:13.539Z,100.00
2023-03-10T20:42:46.362Z,100.00
2023-03-10T20:45:19.312Z,100.00
2023-03-10T20:47:55.603Z,100.00
2023-03-10T20:50:28.255Z,100.00
2023-03-10T20:53:02.199Z,100.00
2023-03-10T20:55:35.748Z,100.00
2023-03-10T20:58:08.444Z,100.00
2023-03-10T21:00:41.103Z,100.00
2023-03-10T21:03:13.658Z,100.00
2023-03-10T21:05:46.492Z,100.00
2023-03-10T21:08:19.521Z,100.00
2023-03-10T21:10:52.644Z,100.00
2023-03-10T21:13:25.804Z,100.00
2023-03-10T21:15:58.336Z,100.00
2023-03-10T21:18:31.047Z,100.00
2023-03-10T21:21:10.110Z,100.00
2023-03-10T21:23:46.218Z,100.00
2023-03-10T21:26:20.680Z,100.00
2023-03-10T21:28:53.382Z,100.00
2023-03-10T21:31:25.814Z,100.00
2023-03-10T21:33:58.340Z,100.00
2023-03-10T21:36:30.719Z,100.00
2023-03-10T21:39:03.367Z,100.00
2023-03-10T21:41:35.996Z,100.00
2023-03-10T21:44:08.838Z,100.00
2023-03-10T21:46:41.814Z,100.00
2023-03-10T21:49:15.833Z,100.00
2023-03-10T21:51:48.646Z,100.00
2023-03-10T21:54:21.044Z,100.00
2023-03-10T21:56:54.750Z,100.00
2023-03-10T21:59:27.373Z,100.00
2023-03-10T22:02:00.798Z,100.00
2023-03-10T22:04:33.418Z,100.00
2023-03-10T22:07:06.363Z,100.00
2023-03-10T22:09:41.270Z,100.00
2023-03-10T22:12:13.436Z,100.00
2023-03-10T22:14:47.616Z,100.00
2023-03-10T22:17:20.761Z,100.00
2023-03-10T22:19:55.036Z,100.00
2023-03-10T22:22:27.749Z,100.00
2023-03-10T22:25:01.877Z,100.00
2023-03-10T22:27:34.592Z,100.00
2023-03-10T22:30:08.685Z,100.00
2023-03-10T22:32:42.051Z,100.00
2023-03-10T22:35:14.828Z,100.00
2023-03-10T22:37:48.420Z,100.00
2023-03-10T22:40:24.159Z,100.00
2023-03-10T22:42:57.874Z,100.00
2023-03-10T22:45:33.061Z,100.00
2023-03-10T22:48:07.135Z,100.00
2023-03-10T22:50:43.639Z,100.00
2023-03-10T22:53:21.079Z,100.00
2023-03-10T22:55:53.903Z,100.00
2023-03-10T22:58:26.246Z,100.00
2023-03-10T23:00:59.118Z,100.00
2023-03-10T23:03:31.753Z,100.00
2023-03-10T23:06:08.241Z,100.00
2023-03-10T23:08:43.957Z,100.00
2023-03-10T23:11:16.862Z,100.00
2023-03-10T23:13:50.481Z,100.00
2023-03-10T23:16:23.882Z,100.00
2023-03-10T23:18:56.958Z,100.00
2023-03-10T23:21:29.646Z,100.00
2023-03-10T23:24:02.300Z,100.00
2023-03-10T23:26:36.380Z,100.00
2023-03-10T23:29:10.020Z,100.00
2023-03-10T23:31:43.221Z,100.00
2023-03-10T23:34:17.498Z,100.00
2023-03-10T23:36:50.073Z,100.00
2023-03-10T23:39:22.491Z,100.00
2023-03-10T23:41:54.964Z,100.00
2023-03-10T23:44:27.681Z,100.00
2023-03-10T23:47:00.061Z,100.00
2023-03-10T23:49:33.456Z,100.00
2023-03-10T23:52:06.061Z,100.00
2023-03-10T23:54:38.838Z,100.00
2023-03-10T23:57:11.911Z,100.00
2023-03-10T23:59:44.381Z,100.00
